createdAt,value
2019-03-27T00:01:31.663Z,70.81
2019-03-27T00:04:00.708Z,70.87
2019-03-27T00:06:29.766Z,70.96
2019-03-27T00:08:58.829Z,71.00
2019-03-27T00:11:27.879Z,71.18
2019-03-27T00:13:56.993Z,71.25
2019-03-27T00:16:26.047Z,71.34
2019-03-27T00:18:55.104Z,71.47
2019-03-27T00:21:24.169Z,71.52
2019-03-27T00:23:53.314Z,71.67
2019-03-27T00:26:22.637Z,71.56
2019-03-27T00:28:51.685Z,71.54
2019-03-27T00:31:20.725Z,71.61
2019-03-27T00:33:49.776Z,71.52
2019-03-27T00:36:19.124Z,71.63
2019-03-27T00:38:48.183Z,72.01
2019-03-27T00:41:17.300Z,71.82
2019-03-27T00:43:46.349Z,71.64
2019-03-27T00:46:15.409Z,71.59
2019-03-27T00:48:44.749Z,71.51
2019-03-27T00:51:13.801Z,71.56
2019-03-27T00:53:42.857Z,71.57
2019-03-27T00:56:11.906Z,71.51
2019-03-27T00:58:40.953Z,71.63
2019-03-27T01:01:13.785Z,71.78
2019-03-27T01:03:43.168Z,71.98
2019-03-27T01:06:13.480Z,72.21
2019-03-27T01:08:42.550Z,72.12
2019-03-27T01:11:11.585Z,72.26
2019-03-27T01:13:40.648Z,72.19
2019-03-27T01:16:09.687Z,72.12
2019-03-27T01:18:38.746Z,71.99
2019-03-27T01:21:07.808Z,71.99
2019-03-27T01:23:36.856Z,72.27
2019-03-27T01:26:05.918Z,72.18
2019-03-27T01:28:34.960Z,72.04
2019-03-27T01:31:04.041Z,72.25
2019-03-27T01:33:33.094Z,72.27
2019-03-27T01:36:02.133Z,72.23
2019-03-27T01:38:31.188Z,72.33
2019-03-27T01:41:00.321Z,72.41
2019-03-27T01:43:29.383Z,72.23
2019-03-27T01:45:58.452Z,72.21
2019-03-27T01:48:27.529Z,72.58
2019-03-27T01:50:56.618Z,72.63
2019-03-27T01:53:25.677Z,72.56
2019-03-27T01:55:54.741Z,72.84
2019-03-27T01:58:23.870Z,72.83
2019-03-27T02:00:52.912Z,72.65
2019-03-27T02:03:21.978Z,72.76
2019-03-27T02:05:51.033Z,72.76
2019-03-27T02:08:20.143Z,72.46
2019-03-27T02:10:49.328Z,72.54
2019-03-27T02:13:18.368Z,72.73
2019-03-27T02:15:48.220Z,72.62
2019-03-27T02:18:17.617Z,72.76
2019-03-27T02:20:46.677Z,73.04
2019-03-27T02:23:15.712Z,73.44
2019-03-27T02:25:44.763Z,73.38
2019-03-27T02:28:13.791Z,73.45
2019-03-27T02:30:42.872Z,73.28
2019-03-27T02:33:11.908Z,73.12
2019-03-27T02:35:40.967Z,72.96
2019-03-27T02:38:10.015Z,73.07
2019-03-27T02:40:39.051Z,72.94
2019-03-27T02:43:08.083Z,72.97
2019-03-27T02:45:37.134Z,72.71
2019-03-27T02:48:06.196Z,72.61
2019-03-27T02:50:35.237Z,72.49
2019-03-27T02:53:04.293Z,72.54
2019-03-27T02:55:33.325Z,72.50
2019-03-27T02:58:38.635Z,72.77
2019-03-27T03:01:07.668Z,72.83
2019-03-27T03:03:36.667Z,72.79
2019-03-27T03:06:05.649Z,72.62
2019-03-27T03:08:34.622Z,72.55
2019-03-27T03:11:03.725Z,72.49
2019-03-27T03:13:32.744Z,72.73
2019-03-27T03:16:01.784Z,72.79
2019-03-27T03:18:30.817Z,73.09
2019-03-27T03:20:59.801Z,72.90
2019-03-27T03:23:29.122Z,73.01
2019-03-27T03:25:58.095Z,72.91
2019-03-27T03:28:27.131Z,72.96
2019-03-27T03:30:56.188Z,72.91
2019-03-27T03:33:25.202Z,72.96
2019-03-27T03:35:54.265Z,73.01
2019-03-27T03:38:23.268Z,73.05
2019-03-27T03:40:52.348Z,72.95
2019-03-27T03:43:21.377Z,73.09
2019-03-27T03:45:50.359Z,73.00
2019-03-27T03:48:19.404Z,72.82
2019-03-27T03:50:48.435Z,72.61
2019-03-27T03:53:17.805Z,72.90
2019-03-27T03:55:46.832Z,72.90
2019-03-27T03:58:16.958Z,73.13
2019-03-27T04:00:46.360Z,73.19
2019-03-27T04:03:15.354Z,73.16
2019-03-27T04:05:44.373Z,73.26
2019-03-27T04:08:13.629Z,73.28
2019-03-27T04:10:43.275Z,73.28
2019-03-27T04:13:12.273Z,73.46
2019-03-27T04:15:41.290Z,73.52
2019-03-27T04:18:10.330Z,73.32
2019-03-27T04:20:39.326Z,73.38
2019-03-27T04:23:08.355Z,73.41
2019-03-27T04:26:07.191Z,73.27
2019-03-27T04:28:08.361Z,73.37
2019-03-27T04:30:37.391Z,73.27
2019-03-27T04:33:06.496Z,73.35
2019-03-27T04:35:35.503Z,73.60
2019-03-27T04:38:04.532Z,73.60
2019-03-27T04:40:33.834Z,73.89
2019-03-27T04:43:02.830Z,74.04
2019-03-27T04:45:32.081Z,73.54
2019-03-27T04:48:01.090Z,73.36
2019-03-27T04:50:30.112Z,73.13
2019-03-27T04:52:59.089Z,73.34
2019-03-27T04:55:28.085Z,73.15
2019-03-27T04:57:57.095Z,73.16
2019-03-27T05:00:26.103Z,73.03
2019-03-27T05:02:55.399Z,72.98
2019-03-27T05:05:24.405Z,72.86
2019-03-27T05:07:53.478Z,72.62
2019-03-27T05:10:22.492Z,72.84
2019-03-27T05:12:51.505Z,72.87
2019-03-27T05:15:20.508Z,72.98
2019-03-27T05:17:49.538Z,73.18
2019-03-27T05:20:18.552Z,73.20
2019-03-27T05:22:47.556Z,73.21
2019-03-27T05:25:16.558Z,73.11
2019-03-27T05:27:45.562Z,72.88
2019-03-27T05:30:18.219Z,72.79
2019-03-27T05:32:47.235Z,72.66
2019-03-27T05:35:16.237Z,72.57
2019-03-27T05:37:45.423Z,72.79
2019-03-27T05:40:14.523Z,72.78
2019-03-27T05:42:43.532Z,72.90
2019-03-27T05:45:12.582Z,73.13
2019-03-27T05:47:41.585Z,73.29
2019-03-27T05:50:10.647Z,73.33
2019-03-27T05:52:39.824Z,73.38
2019-03-27T05:55:08.922Z,73.30
2019-03-27T05:57:37.975Z,73.12
2019-03-27T06:00:07.056Z,73.14
2019-03-27T06:02:36.049Z,73.18
2019-03-27T06:05:05.272Z,72.99
2019-03-27T06:07:34.298Z,72.63
2019-03-27T06:10:03.372Z,73.04
2019-03-27T06:12:32.397Z,72.94
2019-03-27T06:15:01.370Z,72.79
2019-03-27T06:17:30.453Z,73.06
2019-03-27T06:19:59.472Z,72.99
2019-03-27T06:22:28.771Z,72.91
2019-03-27T06:24:57.782Z,72.71
2019-03-27T06:27:26.810Z,72.76
2019-03-27T06:29:55.916Z,72.55
2019-03-27T06:32:25.064Z,72.51
2019-03-27T06:34:54.129Z,72.59
2019-03-27T06:37:23.233Z,72.54
2019-03-27T06:39:52.317Z,72.90
2019-03-27T06:42:21.385Z,73.10
2019-03-27T06:44:50.489Z,73.04
2019-03-27T06:47:19.810Z,72.72
2019-03-27T06:49:48.900Z,72.73
2019-03-27T06:52:17.953Z,72.77
2019-03-27T06:54:47.051Z,72.88
2019-03-27T06:57:16.058Z,72.93
2019-03-27T06:59:45.458Z,72.83
2019-03-27T07:02:14.559Z,72.96
2019-03-27T07:04:43.693Z,73.10
2019-03-27T07:07:12.757Z,72.65
2019-03-27T07:09:42.663Z,72.48
2019-03-27T07:12:21.162Z,72.45
2019-03-27T07:14:42.637Z,72.60
2019-03-27T07:17:11.651Z,72.59
2019-03-27T07:19:40.740Z,72.41
2019-03-27T07:22:09.754Z,72.00
2019-03-27T07:24:38.748Z,72.07
2019-03-27T07:27:07.829Z,71.91
2019-03-27T07:29:36.932Z,71.97
2019-03-27T07:32:05.952Z,71.83
2019-03-27T07:34:34.951Z,71.94
2019-03-27T07:37:04.023Z,72.03
2019-03-27T07:39:33.690Z,71.88
2019-03-27T07:42:02.713Z,71.62
2019-03-27T07:44:31.807Z,71.66
2019-03-27T07:47:00.815Z,71.67
2019-03-27T07:49:29.926Z,71.59
2019-03-27T07:51:58.966Z,71.34
2019-03-27T07:54:28.013Z,71.21
2019-03-27T07:56:57.021Z,71.33
2019-03-27T07:59:26.114Z,71.63
2019-03-27T08:01:55.377Z,71.51
2019-03-27T08:04:24.507Z,71.37
2019-03-27T08:06:53.591Z,71.44
2019-03-27T08:09:23.159Z,71.29
2019-03-27T08:11:52.260Z,70.95
2019-03-27T08:14:21.276Z,70.78
2019-03-27T08:16:50.299Z,70.44
2019-03-27T08:19:19.317Z,70.16
2019-03-27T08:21:48.333Z,70.03
2019-03-27T08:24:17.327Z,70.00
2019-03-27T08:26:46.326Z,69.78
2019-03-27T08:29:15.600Z,69.92
2019-03-27T08:31:44.686Z,69.83
2019-03-27T08:34:14.005Z,69.64
2019-03-27T08:36:43.216Z,69.52
2019-03-27T08:39:12.699Z,69.34
2019-03-27T08:41:41.721Z,69.30
2019-03-27T08:44:10.704Z,69.27
2019-03-27T08:46:39.723Z,69.41
2019-03-27T08:49:21.262Z,69.39
2019-03-27T08:51:39.645Z,69.19
2019-03-27T08:54:08.753Z,69.18
2019-03-27T08:56:37.792Z,69.29
2019-03-27T08:59:07.186Z,69.19
2019-03-27T09:01:36.267Z,68.83
2019-03-27T09:04:05.269Z,68.75
2019-03-27T09:06:34.446Z,68.69
2019-03-27T09:09:06.003Z,67.96
2019-03-27T09:11:35.094Z,68.12
2019-03-27T09:14:04.178Z,67.94
2019-03-27T09:16:33.278Z,68.09
2019-03-27T09:19:02.260Z,67.98
2019-03-27T09:21:31.365Z,67.95
2019-03-27T09:24:00.348Z,67.78
2019-03-27T09:26:29.356Z,68.16
2019-03-27T09:28:58.452Z,67.22
2019-03-27T09:31:27.566Z,67.85
2019-03-27T09:33:56.573Z,68.07
2019-03-27T09:36:25.666Z,67.46
2019-03-27T09:38:54.690Z,67.68
2019-03-27T09:41:23.828Z,67.85
2019-03-27T09:43:52.903Z,67.65
2019-03-27T09:46:21.982Z,67.36
2019-03-27T09:48:51.132Z,67.46
2019-03-27T09:51:20.129Z,67.54
2019-03-27T09:53:49.237Z,67.21
2019-03-27T09:56:19.638Z,67.40
2019-03-27T09:58:48.788Z,67.58
2019-03-27T10:01:17.807Z,67.81
2019-03-27T10:03:46.873Z,67.69
2019-03-27T10:06:15.888Z,67.29
2019-03-27T10:08:44.963Z,67.23
2019-03-27T10:11:13.989Z,67.34
2019-03-27T10:13:43.082Z,67.35
2019-03-27T10:16:12.199Z,67.34
2019-03-27T10:18:41.219Z,66.44
2019-03-27T10:21:10.306Z,66.98
2019-03-27T10:23:39.302Z,66.54
2019-03-27T10:26:08.383Z,66.74
2019-03-27T10:28:37.454Z,66.61
2019-03-27T10:31:06.792Z,66.67
2019-03-27T10:33:35.819Z,66.73
2019-03-27T10:36:04.934Z,66.61
2019-03-27T10:38:33.925Z,66.83
2019-03-27T10:41:03.046Z,66.71
2019-03-27T10:43:32.138Z,66.86
2019-03-27T10:46:01.216Z,66.80
2019-03-27T10:48:30.273Z,66.92
2019-03-27T10:50:59.377Z,67.25
2019-03-27T10:53:28.461Z,67.75
2019-03-27T10:55:57.539Z,67.80
2019-03-27T10:58:26.612Z,68.13
2019-03-27T11:00:55.972Z,68.13
2019-03-27T11:03:24.977Z,68.33
2019-03-27T11:05:53.955Z,68.58
2019-03-27T11:08:23.183Z,68.87
2019-03-27T11:10:52.166Z,69.04
2019-03-27T11:13:21.169Z,69.25
2019-03-27T11:15:50.191Z,69.29
2019-03-27T11:18:19.610Z,69.38
2019-03-27T11:20:48.677Z,70.04
2019-03-27T11:23:17.772Z,69.62
2019-03-27T11:25:46.872Z,70.18
2019-03-27T11:28:15.950Z,70.57
2019-03-27T11:30:48.228Z,70.45
2019-03-27T11:33:15.746Z,70.56
2019-03-27T11:35:44.718Z,71.64
2019-03-27T11:38:13.731Z,72.54
2019-03-27T11:40:42.751Z,71.80
2019-03-27T11:43:11.757Z,72.54
2019-03-27T11:45:40.748Z,72.01
2019-03-27T11:48:09.835Z,73.21
2019-03-27T11:50:45.291Z,72.48
2019-03-27T11:53:09.669Z,72.43
2019-03-27T11:55:38.984Z,72.13
2019-03-27T11:58:08.333Z,72.63
2019-03-27T12:00:37.409Z,72.93
2019-03-27T12:03:06.387Z,73.29
2019-03-27T12:05:35.381Z,73.17
2019-03-27T12:08:04.487Z,73.83
2019-03-27T12:10:33.489Z,73.41
2019-03-27T12:13:02.764Z,73.16
2019-03-27T12:15:43.665Z,73.55
2019-03-27T12:18:13.974Z,73.35
2019-03-27T12:20:42.988Z,72.79
2019-03-27T12:23:12.295Z,73.31
2019-03-27T12:25:41.603Z,73.65
2019-03-27T12:28:10.648Z,73.62
2019-03-27T12:30:39.669Z,73.68
2019-03-27T12:33:09.047Z,73.52
2019-03-27T12:35:38.086Z,73.86
2019-03-27T12:38:07.182Z,73.39
2019-03-27T12:40:36.882Z,74.20
2019-03-27T12:43:05.874Z,73.75
2019-03-27T12:45:35.071Z,73.88
2019-03-27T12:48:04.699Z,74.11
2019-03-27T12:50:33.792Z,74.06
2019-03-27T12:53:03.041Z,74.64
2019-03-27T12:55:32.061Z,74.67
2019-03-27T12:58:01.141Z,75.00
2019-03-27T13:00:30.156Z,74.34
2019-03-27T13:02:59.574Z,74.97
2019-03-27T13:05:28.664Z,74.74
2019-03-27T13:07:57.979Z,75.29
2019-03-27T13:10:27.045Z,74.52
2019-03-27T13:12:56.281Z,74.49
2019-03-27T13:15:25.314Z,74.88
2019-03-27T13:17:54.297Z,75.48
2019-03-27T13:20:23.325Z,74.97
2019-03-27T13:22:52.313Z,74.93
2019-03-27T13:25:21.314Z,75.65
2019-03-27T13:27:50.418Z,75.11
2019-03-27T13:30:19.408Z,75.66
2019-03-27T13:32:48.393Z,75.73
2019-03-27T13:35:17.408Z,75.52
2019-03-27T13:37:46.488Z,75.82
2019-03-27T13:40:15.502Z,75.97
2019-03-27T13:42:44.582Z,75.69
2019-03-27T13:45:13.703Z,75.71
2019-03-27T13:47:42.701Z,75.67
2019-03-27T13:50:13.159Z,75.29
2019-03-27T13:52:42.663Z,75.13
2019-03-27T13:55:11.977Z,75.22
2019-03-27T13:57:40.972Z,75.62
2019-03-27T14:00:11.815Z,75.73
2019-03-27T14:02:40.921Z,75.59
2019-03-27T14:05:11.185Z,75.99
2019-03-27T14:07:40.276Z,76.16
2019-03-27T14:10:09.353Z,77.04
2019-03-27T14:12:38.421Z,76.76
2019-03-27T14:15:09.016Z,76.85
2019-03-27T14:17:38.086Z,76.72
2019-03-27T14:20:07.235Z,76.72
2019-03-27T14:22:36.362Z,77.02
2019-03-27T14:25:06.560Z,77.60
2019-03-27T14:27:35.592Z,76.90
2019-03-27T14:30:05.642Z,76.51
2019-03-27T14:32:34.719Z,76.40
2019-03-27T14:35:03.776Z,76.81
2019-03-27T14:37:32.869Z,76.28
2019-03-27T14:40:02.181Z,76.21
2019-03-27T14:42:31.624Z,76.11
2019-03-27T14:45:00.712Z,76.25
2019-03-27T14:47:29.733Z,76.60
2019-03-27T14:49:58.819Z,76.42
2019-03-27T14:52:27.821Z,76.56
2019-03-27T14:54:56.897Z,77.28
2019-03-27T14:57:25.899Z,77.02
2019-03-27T14:59:54.953Z,77.01
2019-03-27T15:02:23.979Z,77.44
2019-03-27T15:04:52.985Z,77.18
2019-03-27T15:07:22.091Z,77.67
2019-03-27T15:09:51.108Z,77.43
2019-03-27T15:12:20.117Z,77.35
2019-03-27T15:14:49.190Z,78.00
2019-03-27T15:17:18.184Z,78.48
2019-03-27T15:19:47.441Z,77.77
2019-03-27T15:22:22.254Z,77.31
2019-03-27T15:24:47.266Z,77.59
2019-03-27T15:27:16.362Z,77.89
2019-03-27T15:29:45.458Z,77.94
2019-03-27T15:32:14.445Z,77.85
2019-03-27T15:34:43.495Z,78.17
2019-03-27T15:37:12.515Z,78.19
2019-03-27T15:39:41.602Z,78.34
2019-03-27T15:42:10.632Z,78.30
2019-03-27T15:44:39.631Z,77.72
2019-03-27T15:47:08.639Z,77.57
2019-03-27T15:49:37.659Z,77.38
2019-03-27T15:52:06.643Z,77.54
2019-03-27T15:54:35.655Z,77.58
2019-03-27T15:57:04.660Z,77.75
2019-03-27T15:59:33.664Z,77.74
2019-03-27T16:02:02.666Z,77.82
2019-03-27T16:04:31.659Z,77.75
2019-03-27T16:07:00.642Z,77.97
2019-03-27T16:09:29.669Z,78.20
2019-03-27T16:11:58.910Z,78.16
2019-03-27T16:14:28.049Z,78.65
2019-03-27T16:17:12.304Z,78.98
2019-03-27T16:19:27.935Z,78.15
2019-03-27T16:21:56.910Z,78.29
2019-03-27T16:24:25.916Z,78.46
2019-03-27T16:27:04.378Z,78.40
2019-03-27T16:29:25.920Z,78.08
2019-03-27T16:31:55.860Z,77.97
2019-03-27T16:34:25.357Z,78.06
2019-03-27T16:36:54.832Z,78.05
2019-03-27T16:39:23.929Z,78.47
2019-03-27T16:41:52.962Z,78.54
2019-03-27T16:44:22.165Z,78.51
2019-03-27T16:46:51.253Z,78.12
2019-03-27T16:49:20.399Z,78.15
2019-03-27T16:51:49.465Z,78.30
2019-03-27T16:54:18.566Z,78.81
2019-03-27T16:56:47.637Z,78.30
2019-03-27T16:59:16.729Z,78.12
2019-03-27T17:01:45.804Z,78.29
2019-03-27T17:04:15.267Z,78.40
2019-03-27T17:06:44.343Z,78.57
2019-03-27T17:09:13.428Z,78.53
2019-03-27T17:11:42.842Z,78.88
2019-03-27T17:14:12.195Z,78.62
2019-03-27T17:16:41.258Z,78.77
2019-03-27T17:19:10.315Z,78.70
2019-03-27T17:21:39.573Z,79.43
2019-03-27T17:24:08.916Z,78.57
2019-03-27T17:26:38.009Z,78.91
2019-03-27T17:29:07.019Z,78.53
2019-03-27T17:31:36.122Z,78.83
2019-03-27T17:34:05.252Z,79.20
2019-03-27T17:36:34.265Z,78.67
2019-03-27T17:39:04.744Z,78.63
2019-03-27T17:41:33.737Z,79.17
2019-03-27T17:44:03.086Z,79.14
2019-03-27T17:46:32.188Z,78.78
2019-03-27T17:49:01.273Z,79.50
2019-03-27T17:51:30.287Z,78.71
2019-03-27T17:53:59.755Z,79.17
2019-03-27T17:56:28.788Z,79.16
2019-03-27T17:58:58.194Z,79.38
2019-03-27T18:01:27.435Z,78.98
2019-03-27T18:03:56.460Z,79.05
2019-03-27T18:06:25.452Z,79.17
2019-03-27T18:08:54.468Z,79.14
2019-03-27T18:11:23.477Z,79.07
2019-03-27T18:13:52.495Z,79.32
2019-03-27T18:16:21.493Z,79.17
2019-03-27T18:18:50.819Z,79.51
2019-03-27T18:21:21.448Z,79.21
2019-03-27T18:23:50.498Z,79.05
2019-03-27T18:26:19.493Z,79.11
2019-03-27T18:28:48.471Z,79.33
2019-03-27T18:31:17.552Z,79.29
2019-03-27T18:33:46.889Z,79.90
2019-03-27T18:36:15.997Z,80.28
2019-03-27T18:38:45.966Z,79.49
2019-03-27T18:41:15.267Z,79.37
2019-03-27T18:43:44.457Z,79.34
2019-03-27T18:46:13.675Z,79.25
2019-03-27T18:48:42.683Z,79.46
2019-03-27T18:51:11.767Z,79.21
2019-03-27T18:53:41.454Z,79.21
2019-03-27T18:56:10.730Z,79.08
2019-03-27T18:58:39.729Z,79.25
2019-03-27T19:01:09.071Z,79.10
2019-03-27T19:03:38.124Z,79.10
2019-03-27T19:06:07.227Z,79.66
2019-03-27T19:08:36.224Z,79.52
2019-03-27T19:11:05.212Z,79.48
2019-03-27T19:13:34.271Z,79.21
2019-03-27T19:16:03.268Z,79.09
2019-03-27T19:18:32.228Z,79.07
2019-03-27T19:21:01.507Z,79.25
2019-03-27T19:23:30.531Z,79.36
2019-03-27T19:25:59.545Z,79.54
2019-03-27T19:28:28.538Z,79.50
2019-03-27T19:30:57.541Z,79.62
2019-03-27T19:33:26.550Z,79.39
2019-03-27T19:35:55.575Z,79.53
2019-03-27T19:38:24.571Z,79.32
2019-03-27T19:40:53.579Z,79.48
2019-03-27T19:43:22.898Z,79.43
2019-03-27T19:45:51.940Z,79.36
2019-03-27T19:48:21.034Z,79.30
2019-03-27T19:50:50.425Z,79.26
2019-03-27T19:53:19.452Z,79.21
2019-03-27T19:55:48.798Z,79.49
2019-03-27T19:58:17.798Z,79.44
2019-03-27T20:00:46.803Z,79.39
2019-03-27T20:03:15.843Z,79.47
2019-03-27T20:05:44.854Z,79.58
2019-03-27T20:08:13.853Z,79.64
2019-03-27T20:10:42.887Z,79.42
2019-03-27T20:13:11.919Z,79.41
2019-03-27T20:15:41.256Z,79.49
2019-03-27T20:18:10.267Z,79.68
2019-03-27T20:20:39.294Z,79.84
2019-03-27T20:23:14.804Z,79.71
2019-03-27T20:25:39.068Z,79.66
2019-03-27T20:28:08.382Z,79.65
2019-03-27T20:30:37.400Z,79.82
2019-03-27T20:33:06.416Z,79.84
2019-03-27T20:35:35.434Z,79.91
2019-03-27T20:38:04.469Z,79.62
2019-03-27T20:40:33.453Z,79.77
2019-03-27T20:43:02.485Z,79.78
2019-03-27T20:45:31.514Z,79.84
2019-03-27T20:48:00.548Z,79.92
2019-03-27T20:50:29.593Z,79.41
2019-03-27T20:52:58.591Z,77.22
2019-03-27T20:55:30.715Z,76.95
2019-03-27T20:57:58.359Z,76.92
2019-03-27T21:00:27.383Z,77.42
2019-03-27T21:02:56.436Z,78.34
2019-03-27T21:05:25.708Z,78.89
2019-03-27T21:07:54.726Z,79.28
2019-03-27T21:10:23.741Z,79.27
2019-03-27T21:12:52.858Z,79.52
2019-03-27T21:15:21.839Z,79.65
2019-03-27T21:17:50.850Z,79.62
2019-03-27T21:20:20.183Z,79.41
2019-03-27T21:22:49.222Z,79.32
2019-03-27T21:25:18.236Z,79.31
2019-03-27T21:27:47.312Z,79.27
2019-03-27T21:30:16.397Z,79.43
2019-03-27T21:32:45.760Z,79.25
2019-03-27T21:35:14.783Z,79.31
2019-03-27T21:37:43.854Z,79.40
2019-03-27T21:40:16.142Z,79.66
2019-03-27T21:42:45.232Z,79.73
2019-03-27T21:45:14.711Z,79.42
2019-03-27T21:47:43.861Z,79.51
2019-03-27T21:50:12.950Z,79.28
2019-03-27T21:52:41.984Z,79.20
2019-03-27T21:55:21.916Z,79.36
2019-03-27T21:57:42.049Z,79.33
2019-03-27T22:00:11.271Z,79.49
2019-03-27T22:02:40.301Z,79.35
2019-03-27T22:05:09.294Z,79.26
2019-03-27T22:07:38.502Z,79.42
2019-03-27T22:10:08.105Z,79.46
2019-03-27T22:12:38.406Z,79.50
2019-03-27T22:15:09.657Z,79.56
2019-03-27T22:17:38.672Z,79.62
2019-03-27T22:20:07.991Z,79.70
2019-03-27T22:22:37.072Z,79.60
2019-03-27T22:25:07.096Z,79.48
2019-03-27T22:27:36.110Z,79.38
2019-03-27T22:30:06.333Z,79.56
2019-03-27T22:32:35.317Z,79.53
2019-03-27T22:35:04.477Z,79.50
2019-03-27T22:37:33.481Z,79.38
2019-03-27T22:40:02.495Z,79.49
2019-03-27T22:42:31.479Z,79.44
2019-03-27T22:45:00.485Z,79.40
2019-03-27T22:47:29.669Z,79.52
2019-03-27T22:49:58.667Z,79.53
2019-03-27T22:52:27.675Z,79.37
2019-03-27T22:54:56.676Z,79.39
2019-03-27T22:57:25.676Z,79.33
2019-03-27T22:59:54.736Z,79.51
2019-03-27T23:02:24.108Z,79.49
2019-03-27T23:04:53.451Z,79.60
2019-03-27T23:07:22.448Z,79.45
2019-03-27T23:09:51.481Z,79.44
2019-03-27T23:12:20.484Z,79.28
2019-03-27T23:14:49.502Z,79.27
2019-03-27T23:17:18.517Z,79.23
2019-03-27T23:19:47.557Z,79.27
2019-03-27T23:22:16.570Z,79.37
2019-03-27T23:24:45.654Z,79.58
2019-03-27T23:27:14.932Z,79.41
2019-03-27T23:29:43.928Z,79.33
2019-03-27T23:32:12.956Z,79.29
2019-03-27T23:34:41.970Z,79.26
2019-03-27T23:37:11.063Z,79.39
2019-03-27T23:39:40.036Z,79.53
2019-03-27T23:42:09.382Z,79.39
2019-03-27T23:44:38.948Z,79.23
2019-03-27T23:47:08.044Z,79.29
2019-03-27T23:49:37.048Z,79.15
2019-03-27T23:52:06.025Z,79.18
2019-03-27T23:54:35.344Z,79.30
2019-03-27T23:57:04.325Z,79.30
2019-03-27T23:59:33.326Z,79.15
